Time;durP1;ratioP1;P1;durP2;ratioP2;P2;SDS_P1;SDS_P2;PMS_P1;PMS_P2;Temp;Humidity;BMP_temperature;BMP_pressure;BME280_temperature;BME280_humidity;BME280_pressure;Samples;Min_cycle;Max_cycle;Signal;HPM_P1;HPM_P2
2021/08/24 00:00:30;;;;;;;3.40;3.00;;;15.10;99.90;;;;;;5021582;28;20692;-61
2021/08/24 00:03:01;;;;;;;3.17;2.87;;;15.20;99.90;;;;;;5018954;28;20680;-61
2021/08/24 00:05:35;;;;;;;3.27;2.97;;;15.10;99.90;;;;;;5025644;28;20274;-61
2021/08/24 00:08:04;;;;;;;4.87;2.90;;;15.00;99.90;;;;;;5027566;28;20366;-61
2021/08/24 00:10:36;;;;;;;3.47;2.90;;;15.00;99.90;;;;;;5027257;28;20233;-61
2021/08/24 00:13:06;;;;;;;3.53;2.97;;;15.10;99.90;;;;;;5027569;28;20401;-62
2021/08/24 00:15:35;;;;;;;3.30;2.70;;;15.00;99.90;;;;;;5024826;28;20237;-61
2021/08/24 00:18:04;;;;;;;3.50;2.70;;;15.00;99.90;;;;;;5021015;28;20245;-62
2021/08/24 00:20:32;;;;;;;3.17;2.60;;;15.00;99.90;;;;;;5025006;28;20237;-61
2021/08/24 00:23:02;;;;;;;3.43;2.93;;;15.00;99.90;;;;;;5022062;28;20274;-61
2021/08/24 00:25:31;;;;;;;3.30;3.00;;;14.90;99.90;;;;;;5020168;28;20229;-61
2021/08/24 00:27:59;;;;;;;3.40;3.10;;;14.80;99.90;;;;;;5020691;28;20240;-61
2021/08/24 00:30:29;;;;;;;3.20;2.90;;;14.90;99.90;;;;;;5023635;28;20286;-61
2021/08/24 00:32:57;;;;;;;3.40;3.03;;;14.90;99.90;;;;;;5020430;28;20239;-61
2021/08/24 00:35:25;;;;;;;3.33;2.90;;;14.90;99.90;;;;;;5028180;28;20323;-61
2021/08/24 00:37:55;;;;;;;4.13;3.17;;;14.90;99.90;;;;;;5016518;28;20229;-61
2021/08/24 00:40:24;;;;;;;4.33;2.90;;;15.00;99.90;;;;;;5022231;28;20315;-61
2021/08/24 00:42:52;;;;;;;5.13;3.20;;;14.90;99.90;;;;;;5021146;28;20256;-61
2021/08/24 00:45:21;;;;;;;4.50;2.90;;;14.90;99.90;;;;;;5022016;28;20244;-61
2021/08/24 00:47:51;;;;;;;4.30;2.70;;;14.80;99.90;;;;;;5023355;28;20904;-61
2021/08/24 00:50:27;;;;;;;4.23;2.60;;;14.80;99.90;;;;;;5027499;28;20229;-61
2021/08/24 00:52:57;;;;;;;3.37;2.97;;;14.80;99.90;;;;;;5022906;28;20239;-61
2021/08/24 00:55:25;;;;;;;7.03;2.83;;;14.80;99.90;;;;;;5022151;28;20233;-61
2021/08/24 00:57:57;;;;;;;3.20;2.90;;;14.70;99.90;;;;;;5019189;28;20319;-61
2021/08/24 01:00:26;;;;;;;3.60;2.80;;;14.70;99.90;;;;;;5026441;28;20239;-61
2021/08/24 01:02:59;;;;;;;3.47;2.60;;;14.70;99.90;;;;;;5018525;28;20233;-61
2021/08/24 01:05:29;;;;;;;4.10;2.40;;;14.70;99.90;;;;;;5022171;28;20244;-62
2021/08/24 01:08:07;;;;;;;6.03;2.80;;;14.70;99.90;;;;;;5019842;28;20249;-61
2021/08/24 01:10:41;;;;;;;2.87;2.60;;;14.80;99.90;;;;;;5019725;28;20232;-61
2021/08/24 01:13:18;;;;;;;2.70;2.50;;;14.80;99.90;;;;;;5026353;28;20243;-61
2021/08/24 01:15:53;;;;;;;3.03;2.40;;;14.70;99.90;;;;;;5021694;28;20240;-61
2021/08/24 01:18:29;;;;;;;2.73;2.50;;;14.80;99.90;;;;;;5020983;28;20691;-61
2021/08/24 01:21:24;;;;;;;2.80;2.60;;;14.60;99.90;;;;;;5024171;28;20262;-61
2021/08/24 01:23:56;;;;;;;2.30;2.10;;;14.60;99.90;;;;;;5000168;28;20307;-61
2021/08/24 01:26:32;;;;;;;3.03;2.40;;;14.60;99.90;;;;;;5018897;28;20327;-61
2021/08/24 01:29:30;;;;;;;2.33;2.10;;;14.50;99.90;;;;;;5024537;28;20665;-61
2021/08/24 01:32:13;;;;;;;2.80;2.00;;;14.40;99.90;;;;;;5026243;28;20628;-61
2021/08/24 01:35:06;;;;;;;2.53;2.27;;;14.40;99.90;;;;;;5020259;28;20244;-61
2021/08/24 01:37:44;;;;;;;2.60;2.40;;;14.50;99.90;;;;;;5020774;28;20263;-61
2021/08/24 01:40:17;;;;;;;3.60;2.50;;;14.40;99.90;;;;;;5025808;28;20228;-61
2021/08/24 01:42:46;;;;;;;2.33;2.00;;;14.40;99.90;;;;;;5021827;28;20335;-61
2021/08/24 01:45:18;;;;;;;2.60;2.40;;;14.40;99.90;;;;;;5025607;28;20263;-61
2021/08/24 01:47:55;;;;;;;4.30;2.40;;;14.30;99.90;;;;;;5018967;28;20267;-62
2021/08/24 01:50:28;;;;;;;2.87;2.37;;;14.40;99.90;;;;;;5021614;28;20682;-61
2021/08/24 01:53:08;;;;;;;2.80;2.50;;;14.20;99.90;;;;;;5024673;28;20237;-61
2021/08/24 01:55:44;;;;;;;3.67;2.60;;;14.30;99.90;;;;;;5025849;28;20660;-61
2021/08/24 01:58:21;;;;;;;4.30;2.50;;;14.30;99.90;;;;;;5023454;28;20236;-61
2021/08/24 02:00:56;;;;;;;2.87;2.57;;;14.30;99.90;;;;;;5024934;28;20232;-60
2021/08/24 02:03:31;;;;;;;4.17;3.00;;;14.30;99.90;;;;;;5027712;28;20240;-61
2021/08/24 02:06:07;;;;;;;2.97;2.60;;;14.40;99.90;;;;;;5020393;28;20232;-61
2021/08/24 02:08:40;;;;;;;3.17;2.60;;;14.40;99.90;;;;;;5024027;28;20331;-61
2021/08/24 02:11:08;;;;;;;3.13;2.50;;;14.30;99.90;;;;;;5027153;28;20318;-61
2021/08/24 02:13:40;;;;;;;3.60;2.73;;;14.20;99.90;;;;;;5020550;28;20233;-61
2021/08/24 02:16:15;;;;;;;4.73;2.63;;;14.10;99.90;;;;;;5026422;28;20278;-61
2021/08/24 02:18:52;;;;;;;5.37;2.70;;;14.20;99.90;;;;;;5026521;28;20255;-61
2021/08/24 02:21:25;;;;;;;3.43;2.60;;;14.10;99.90;;;;;;5017482;28;20475;-61
2021/08/24 02:23:58;;;;;;;3.37;2.70;;;14.10;99.90;;;;;;5020259;28;20240;-61
2021/08/24 02:26:29;;;;;;;3.07;2.77;;;14.00;99.90;;;;;;5028615;28;20306;-61
2021/08/24 02:28:59;;;;;;;3.07;2.50;;;14.10;99.90;;;;;;5034641;28;20676;-61
2021/08/24 02:31:30;;;;;;;2.10;1.90;;;14.00;99.90;;;;;;5018594;28;20236;-61
2021/08/24 02:34:07;;;;;;;3.13;2.03;;;14.10;99.90;;;;;;5024002;28;20517;-62
2021/08/24 02:36:37;;;;;;;2.53;2.07;;;13.90;99.90;;;;;;5019893;28;20798;-61
2021/08/24 02:39:12;;;;;;;3.57;2.10;;;13.90;99.90;;;;;;5019739;28;20241;-61
2021/08/24 02:41:46;;;;;;;2.13;1.90;;;14.00;99.90;;;;;;5019934;28;20252;-61
2021/08/24 02:44:18;;;;;;;2.27;1.90;;;14.00;99.90;;;;;;5023422;28;20326;-61
2021/08/24 02:46:50;;;;;;;1.73;1.60;;;14.00;99.90;;;;;;5017553;28;20240;-61
2021/08/24 02:49:22;;;;;;;2.13;1.90;;;14.00;99.90;;;;;;5015453;28;20256;-61
2021/08/24 02:51:52;;;;;;;1.83;1.73;;;14.00;99.90;;;;;;5020895;28;20320;-61
2021/08/24 02:54:26;;;;;;;3.67;1.70;;;13.90;99.90;;;;;;5018783;28;20232;-61
2021/08/24 02:56:55;;;;;;;1.80;1.70;;;13.90;99.90;;;;;;5027125;28;20323;-61
2021/08/24 02:59:23;;;;;;;2.43;1.90;;;13.80;99.90;;;;;;5019931;28;20647;-61
2021/08/24 03:01:52;;;;;;;2.30;2.10;;;13.80;99.90;;;;;;5023428;28;20714;-61
2021/08/24 03:04:20;;;;;;;2.20;2.10;;;13.80;99.90;;;;;;5024378;28;20235;-61
2021/08/24 03:06:54;;;;;;;2.60;2.13;;;13.80;99.90;;;;;;5019675;28;20605;-61
2021/08/24 03:09:27;;;;;;;3.60;2.20;;;13.80;99.90;;;;;;5013254;28;20641;-61
2021/08/24 03:12:03;;;;;;;3.00;2.20;;;13.80;99.90;;;;;;5025862;28;20294;-61
2021/08/24 03:14:37;;;;;;;2.43;2.23;;;13.70;99.90;;;;;;5026203;28;20314;-61
2021/08/24 03:17:11;;;;;;;2.93;2.13;;;13.70;99.90;;;;;;5019741;28;20332;-61
2021/08/24 03:19:42;;;;;;;2.83;2.00;;;13.70;99.90;;;;;;5020675;28;20236;-60
2021/08/24 03:22:13;;;;;;;2.53;2.00;;;13.60;99.90;;;;;;5026461;28;20294;-62
2021/08/24 03:24:43;;;;;;;2.83;2.40;;;13.60;99.90;;;;;;5017818;28;20235;-61
2021/08/24 03:27:12;;;;;;;4.30;2.60;;;13.60;99.90;;;;;;5022482;28;20242;-61
2021/08/24 03:29:40;;;;;;;3.37;2.80;;;13.60;99.90;;;;;;5021887;28;20730;-59
2021/08/24 03:32:09;;;;;;;2.80;2.30;;;13.60;99.90;;;;;;5019833;28;20629;-61
2021/08/24 03:34:37;;;;;;;2.50;2.30;;;13.60;99.90;;;;;;5017441;28;20636;-61
2021/08/24 03:37:06;;;;;;;3.13;2.40;;;13.60;99.90;;;;;;5019425;28;20269;-61
2021/08/24 03:39:34;;;;;;;3.33;2.60;;;13.70;99.90;;;;;;5012070;28;20673;-61
2021/08/24 03:42:04;;;;;;;3.17;2.90;;;13.70;99.90;;;;;;5017248;28;20233;-62
2021/08/24 03:44:32;;;;;;;3.53;2.50;;;13.60;99.90;;;;;;5019593;28;20319;-61
2021/08/24 03:47:00;;;;;;;3.10;2.70;;;13.50;99.90;;;;;;5019309;28;20587;-61
2021/08/24 03:49:28;;;;;;;2.87;2.33;;;13.50;99.90;;;;;;5016042;28;20245;-61
2021/08/24 03:51:56;;;;;;;2.67;2.47;;;13.40;99.90;;;;;;5023605;28;20258;-61
2021/08/24 03:54:24;;;;;;;3.70;2.40;;;13.50;99.90;;;;;;5018140;28;20568;-61
2021/08/24 03:56:52;;;;;;;2.37;2.17;;;13.50;99.90;;;;;;5020715;28;20238;-61
2021/08/24 03:59:21;;;;;;;2.13;1.90;;;13.40;99.90;;;;;;5020513;28;20263;-61
2021/08/24 04:01:50;;;;;;;2.37;2.17;;;13.30;99.90;;;;;;5021099;28;20249;-61
2021/08/24 04:04:18;;;;;;;2.17;1.97;;;13.30;99.90;;;;;;5012425;28;20232;-61
2021/08/24 04:06:46;;;;;;;3.50;2.37;;;13.40;99.90;;;;;;5025803;28;20240;-62
2021/08/24 04:09:14;;;;;;;2.40;2.20;;;13.30;99.90;;;;;;5049293;28;20265;-61
2021/08/24 04:11:44;;;;;;;1.90;1.80;;;13.40;99.90;;;;;;5056269;28;20288;-61
2021/08/24 04:14:12;;;;;;;2.33;1.90;;;13.30;99.90;;;;;;5049868;28;20310;-61
2021/08/24 04:16:42;;;;;;;3.70;1.93;;;13.30;99.90;;;;;;5054875;28;20733;-62
2021/08/24 04:19:12;;;;;;;1.80;1.67;;;13.30;99.90;;;;;;5055697;28;20246;-61
2021/08/24 04:21:42;;;;;;;1.60;1.50;;;13.40;99.90;;;;;;5051832;28;20240;-62
2021/08/24 04:24:11;;;;;;;1.93;1.80;;;13.50;99.90;;;;;;5052983;28;20293;-61
2021/08/24 04:26:39;;;;;;;2.40;2.00;;;13.50;99.90;;;;;;5054637;28;20259;-61
2021/08/24 04:29:07;;;;;;;2.20;2.00;;;13.40;99.90;;;;;;5052073;28;20296;-61
2021/08/24 04:31:39;;;;;;;2.70;2.30;;;13.30;99.90;;;;;;5046504;28;20250;-61
2021/08/24 04:34:08;;;;;;;2.90;2.23;;;13.30;99.90;;;;;;5053738;28;20626;-61
2021/08/24 04:36:36;;;;;;;2.57;2.20;;;13.50;99.90;;;;;;5057064;28;20829;-62
2021/08/24 04:39:05;;;;;;;2.90;2.37;;;13.40;99.90;;;;;;5058471;28;20737;-61
2021/08/24 04:41:33;;;;;;;2.50;2.30;;;13.40;99.90;;;;;;5050430;28;20230;-61
2021/08/24 04:44:02;;;;;;;4.50;2.23;;;13.50;99.90;;;;;;5050317;28;20244;-62
2021/08/24 04:46:30;;;;;;;2.63;1.90;;;13.60;99.90;;;;;;5048812;28;20734;-61
2021/08/24 04:48:59;;;;;;;1.83;1.60;;;13.50;99.90;;;;;;5053486;28;20239;-61
2021/08/24 04:51:28;;;;;;;1.30;1.20;;;13.50;99.90;;;;;;5048194;28;20738;-61
2021/08/24 04:53:56;;;;;;;1.37;1.10;;;13.50;99.90;;;;;;5048060;28;20434;-62
2021/08/24 04:56:25;;;;;;;1.60;1.20;;;13.50;99.90;;;;;;5045913;28;20237;-61
2021/08/24 04:58:53;;;;;;;1.50;1.40;;;13.40;99.90;;;;;;5047865;28;20266;-62
2021/08/24 05:01:21;;;;;;;1.50;1.40;;;13.30;99.90;;;;;;5049321;28;20535;-61
2021/08/24 05:03:50;;;;;;;1.97;1.77;;;13.20;99.90;;;;;;5051588;28;20643;-61
2021/08/24 05:06:18;;;;;;;3.60;1.83;;;13.20;99.90;;;;;;5063220;28;20250;-61
2021/08/24 05:08:47;;;;;;;2.23;1.83;;;13.20;99.90;;;;;;5054316;28;20239;-61
2021/08/24 05:11:15;;;;;;;2.57;2.00;;;13.30;99.90;;;;;;5070129;28;20241;-61
2021/08/24 05:13:44;;;;;;;2.40;2.20;;;13.30;99.90;;;;;;5048831;28;20231;-61
2021/08/24 05:16:12;;;;;;;4.10;2.60;;;13.30;99.90;;;;;;5050678;28;20246;-62
2021/08/24 05:18:41;;;;;;;3.70;2.13;;;13.40;99.90;;;;;;5055642;28;20232;-61
2021/08/24 05:21:13;;;;;;;3.03;2.10;;;13.50;99.90;;;;;;5051573;28;20246;-61
2021/08/24 05:23:42;;;;;;;2.90;2.60;;;13.60;99.90;;;;;;5050765;28;20316;-61
2021/08/24 05:26:15;;;;;;;3.80;2.60;;;13.60;99.90;;;;;;5047803;28;20694;-61
2021/08/24 05:28:43;;;;;;;3.17;2.87;;;13.70;99.90;;;;;;5047123;28;20332;-61
2021/08/24 05:31:12;;;;;;;3.30;2.67;;;13.80;99.90;;;;;;5047759;28;20239;-61
2021/08/24 05:33:43;;;;;;;4.83;3.20;;;13.90;99.90;;;;;;5050687;28;20704;-61
2021/08/24 05:36:12;;;;;;;7.27;4.00;;;14.00;99.90;;;;;;5046490;28;20232;-61
2021/08/24 05:38:40;;;;;;;4.10;3.70;;;14.10;99.90;;;;;;5048441;28;20246;-61
2021/08/24 05:41:08;;;;;;;4.90;3.60;;;14.20;99.90;;;;;;5046994;28;20245;-61
2021/08/24 05:43:38;;;;;;;6.10;4.50;;;14.20;99.90;;;;;;5048556;28;20257;-61
2021/08/24 05:46:09;;;;;;;5.00;4.20;;;14.20;99.90;;;;;;5046663;28;20239;-61
2021/08/24 05:48:38;;;;;;;4.30;3.90;;;14.20;99.90;;;;;;5045419;28;20239;-61
2021/08/24 05:51:09;;;;;;;6.13;4.30;;;14.40;99.90;;;;;;5044288;28;20694;-61
2021/08/24 05:53:38;;;;;;;3.97;3.53;;;14.50;99.90;;;;;;5044841;28;20328;-61
2021/08/24 05:56:10;;;;;;;4.93;3.40;;;14.60;99.90;;;;;;5044702;28;20252;-61
2021/08/24 05:58:40;;;;;;;5.30;3.60;;;14.80;99.90;;;;;;5042581;28;20751;-61
2021/08/24 06:01:08;;;;;;;4.40;4.00;;;14.90;99.90;;;;;;5042286;28;20239;-61
2021/08/24 06:03:37;;;;;;;4.53;3.70;;;15.10;99.90;;;;;;5043750;28;20297;-61
2021/08/24 06:06:06;;;;;;;4.93;4.20;;;15.20;99.90;;;;;;5042936;28;20330;-61
2021/08/24 06:08:35;;;;;;;5.57;4.30;;;15.40;99.90;;;;;;5045339;28;20242;-61
2021/08/24 06:11:04;;;;;;;5.60;4.07;;;15.50;99.90;;;;;;5046724;28;20235;-61
2021/08/24 06:13:32;;;;;;;4.27;3.87;;;15.60;99.90;;;;;;5048619;28;20806;-62
2021/08/24 06:16:02;;;;;;;4.13;3.63;;;15.80;99.90;;;;;;5044850;28;20343;-61
2021/08/24 06:18:32;;;;;;;4.80;4.10;;;15.90;99.90;;;;;;5042143;28;20243;-61
2021/08/24 06:21:01;;;;;;;4.83;4.20;;;16.10;99.90;;;;;;5043984;28;20330;-61
2021/08/24 06:23:30;;;;;;;3.93;3.40;;;16.30;99.90;;;;;;5043677;28;20330;-61
2021/08/24 06:25:58;;;;;;;4.33;3.93;;;16.50;99.90;;;;;;5046544;28;20331;-61
2021/08/24 06:28:26;;;;;;;5.67;4.63;;;16.60;99.90;;;;;;5044932;28;20236;-61
2021/08/24 06:30:54;;;;;;;5.43;4.40;;;16.80;99.90;;;;;;5045839;28;20639;-61
2021/08/24 06:33:27;;;;;;;5.40;4.63;;;16.90;99.90;;;;;;5045046;28;20239;-61
2021/08/24 06:35:55;;;;;;;3.97;3.57;;;17.10;99.90;;;;;;5045076;28;20329;-61
2021/08/24 06:38:23;;;;;;;4.70;4.07;;;17.20;99.90;;;;;;5043687;28;20232;-62
2021/08/24 06:40:51;;;;;;;6.43;4.50;;;17.40;99.90;;;;;;5045335;28;20297;-62
2021/08/24 06:43:19;;;;;;;5.07;4.57;;;17.60;99.90;;;;;;5045180;28;20228;-62
2021/08/24 06:45:48;;;;;;;5.20;4.70;;;17.90;99.90;;;;;;5043108;28;20816;-62
2021/08/24 06:48:16;;;;;;;5.80;4.60;;;18.00;99.90;;;;;;5025266;28;20231;-62
2021/08/24 06:50:47;;;;;;;6.07;4.83;;;18.20;99.90;;;;;;5029224;28;20292;-62
2021/08/24 06:53:16;;;;;;;4.30;3.90;;;18.40;99.90;;;;;;5026748;28;20340;-61
2021/08/24 06:55:44;;;;;;;5.50;3.70;;;18.40;99.90;;;;;;5028297;28;20241;-61
2021/08/24 06:58:13;;;;;;;4.67;4.27;;;18.60;99.90;;;;;;5025756;28;20701;-62
2021/08/24 07:00:42;;;;;;;5.40;4.70;;;18.70;99.90;;;;;;5029485;28;20254;-61
2021/08/24 07:03:11;;;;;;;4.93;4.43;;;19.00;99.90;;;;;;5026012;28;20267;-62
2021/08/24 07:05:42;;;;;;;5.10;4.27;;;19.10;99.90;;;;;;5028932;28;20242;-61
2021/08/24 07:08:12;;;;;;;5.17;4.10;;;19.10;99.90;;;;;;5027007;28;20284;-62
2021/08/24 07:10:40;;;;;;;4.67;4.20;;;19.00;99.90;;;;;;5028928;28;20254;-62
2021/08/24 07:13:09;;;;;;;5.80;4.40;;;19.10;99.90;;;;;;5026314;28;20325;-62
2021/08/24 07:15:37;;;;;;;6.00;4.30;;;19.10;99.90;;;;;;5026629;28;20309;-62
2021/08/24 07:18:06;;;;;;;4.13;3.70;;;19.10;99.90;;;;;;5025795;28;20241;-62
2021/08/24 07:20:34;;;;;;;4.67;3.73;;;19.30;99.90;;;;;;5033581;28;20237;-62
2021/08/24 07:23:03;;;;;;;4.43;3.90;;;19.40;99.90;;;;;;5027975;28;20262;-62
2021/08/24 07:25:37;;;;;;;4.77;3.67;;;19.60;99.90;;;;;;5026185;28;20243;-62
2021/08/24 07:28:10;;;;;;;5.47;3.77;;;19.90;99.90;;;;;;5029309;28;20332;-62
2021/08/24 07:30:40;;;;;;;3.90;3.50;;;20.10;99.90;;;;;;5026857;28;20243;-61
2021/08/24 07:33:09;;;;;;;4.10;3.63;;;20.10;99.90;;;;;;5029264;28;20239;-61
2021/08/24 07:35:37;;;;;;;4.77;3.07;;;20.10;99.90;;;;;;5024254;28;20276;-62
2021/08/24 07:38:05;;;;;;;4.27;3.30;;;20.20;99.90;;;;;;5030288;28;20244;-62
2021/08/24 07:40:35;;;;;;;3.30;3.00;;;20.20;99.90;;;;;;5027011;28;20250;-62
2021/08/24 07:43:03;;;;;;;4.43;3.10;;;20.30;99.90;;;;;;5027017;28;20238;-62
2021/08/24 07:45:31;;;;;;;4.47;3.30;;;20.50;99.90;;;;;;5028618;28;20249;-62
2021/08/24 07:47:59;;;;;;;5.00;3.07;;;20.70;99.90;;;;;;5026278;28;20247;-62
2021/08/24 07:50:27;;;;;;;3.70;2.90;;;20.50;99.90;;;;;;5024331;28;21130;-62
2021/08/24 07:52:59;;;;;;;4.13;3.10;;;20.70;99.90;;;;;;5027784;28;20252;-62
2021/08/24 07:55:27;;;;;;;4.40;3.00;;;21.00;99.90;;;;;;5028635;28;20916;-62
2021/08/24 07:57:57;;;;;;;6.23;2.80;;;21.10;99.90;;;;;;5027244;28;20246;-62
2021/08/24 08:00:25;;;;;;;4.90;2.53;;;21.10;99.90;;;;;;5027089;28;20732;-61
2021/08/24 08:02:53;;;;;;;14.73;4.37;;;21.20;99.90;;;;;;5026532;28;20237;-62
2021/08/24 08:05:22;;;;;;;9.87;3.47;;;21.20;99.90;;;;;;5025133;28;20235;-61
2021/08/24 08:07:50;;;;;;;10.80;3.10;;;21.50;99.90;;;;;;5026554;28;20247;-61
2021/08/24 08:10:19;;;;;;;7.20;2.93;;;21.70;99.90;;;;;;5025559;28;20236;-61
2021/08/24 08:12:47;;;;;;;3.57;2.60;;;21.90;99.90;;;;;;5027008;28;20240;-61
2021/08/24 08:15:18;;;;;;;8.97;3.03;;;21.90;99.90;;;;;;5025242;28;20329;-61
2021/08/24 08:17:46;;;;;;;7.83;2.17;;;21.80;99.90;;;;;;5035193;28;20339;-62
2021/08/24 08:20:14;;;;;;;6.10;2.70;;;21.90;99.90;;;;;;5034255;28;20730;-62
2021/08/24 08:22:43;;;;;;;4.50;2.80;;;21.80;99.90;;;;;;5034650;28;20247;-62
2021/08/24 08:25:12;;;;;;;4.70;2.50;;;21.80;99.90;;;;;;5035542;28;20666;-61
2021/08/24 08:27:40;;;;;;;5.47;2.03;;;21.70;99.90;;;;;;5038139;28;20722;-61
2021/08/24 08:30:10;;;;;;;3.37;2.57;;;21.90;99.90;;;;;;5038107;28;20864;-61
2021/08/24 08:32:43;;;;;;;3.10;2.40;;;22.20;99.90;;;;;;5038223;28;20243;-62
2021/08/24 08:35:12;;;;;;;3.83;2.23;;;22.30;99.90;;;;;;5038802;28;20307;-61
2021/08/24 08:37:41;;;;;;;4.83;2.60;;;22.30;99.90;;;;;;5039107;28;20461;-61
2021/08/24 08:40:11;;;;;;;3.20;2.40;;;22.20;99.90;;;;;;5038158;28;20243;-60
2021/08/24 08:42:52;;;;;;;3.17;2.07;;;22.20;99.90;;;;;;5038320;28;20386;-62
2021/08/24 08:45:28;;;;;;;2.90;2.30;;;22.60;99.90;;;;;;5039503;28;20734;-62
2021/08/24 08:48:34;;;;;;;4.57;2.60;;;22.50;99.90;;;;;;5038317;28;20247;-62
2021/08/24 08:51:15;;;;;;;3.87;2.50;;;22.60;99.90;;;;;;5033537;28;20326;-61
2021/08/24 08:53:51;;;;;;;3.90;2.40;;;22.60;99.90;;;;;;5038593;28;20278;-61
2021/08/24 08:56:30;;;;;;;3.53;2.33;;;22.70;99.90;;;;;;5039060;28;20322;-62
2021/08/24 08:59:05;;;;;;;3.37;2.40;;;23.00;99.90;;;;;;5037565;28;20259;-62
2021/08/24 09:01:40;;;;;;;3.47;2.30;;;23.00;99.90;;;;;;5038821;28;20343;-62
2021/08/24 09:04:16;;;;;;;3.40;2.30;;;23.20;99.90;;;;;;5037227;28;20251;-60
2021/08/24 09:06:48;;;;;;;3.23;2.57;;;23.50;99.90;;;;;;5038921;28;20580;-62
2021/08/24 09:09:17;;;;;;;3.23;2.53;;;23.30;99.90;;;;;;5037354;28;20322;-62
2021/08/24 09:11:48;;;;;;;3.53;2.73;;;23.30;99.90;;;;;;5039113;28;20710;-62
2021/08/24 09:14:21;;;;;;;3.73;2.90;;;23.60;99.90;;;;;;5038291;28;20259;-62
2021/08/24 09:16:55;;;;;;;4.43;2.80;;;23.90;99.90;;;;;;5038683;28;20267;-62
2021/08/24 09:19:27;;;;;;;4.27;2.77;;;23.60;99.90;;;;;;5036883;28;20238;-62
2021/08/24 09:21:57;;;;;;;3.43;2.63;;;23.50;99.90;;;;;;5038478;28;20266;-62
2021/08/24 09:24:30;;;;;;;4.23;2.80;;;23.40;99.90;;;;;;5037888;28;20279;-62
2021/08/24 09:27:02;;;;;;;4.13;2.50;;;23.50;99.90;;;;;;5037685;28;20243;-62
2021/08/24 09:29:34;;;;;;;3.27;2.30;;;23.90;99.90;;;;;;5036633;28;20765;-62
2021/08/24 09:32:06;;;;;;;3.63;2.60;;;24.00;99.90;;;;;;5038303;28;20276;-62
2021/08/24 09:34:37;;;;;;;4.77;3.00;;;24.30;99.90;;;;;;5034563;28;20228;-62
2021/08/24 09:37:09;;;;;;;3.43;2.60;;;24.60;99.90;;;;;;5008662;28;20246;-62
2021/08/24 09:39:52;;;;;;;4.07;2.77;;;24.60;99.90;;;;;;5009086;28;20810;-63
2021/08/24 09:42:34;;;;;;;5.17;3.00;;;24.50;99.90;;;;;;5014681;28;20309;-62
2021/08/24 09:45:25;;;;;;;2.97;2.40;;;24.20;99.90;;;;;;5016029;28;20667;-62
2021/08/24 09:48:06;;;;;;;3.97;2.90;;;24.10;99.90;;;;;;5009336;28;20249;-63
2021/08/24 09:50:36;;;;;;;4.53;2.70;;;24.10;99.90;;;;;;5004874;28;20306;-62
2021/08/24 09:53:08;;;;;;;3.70;2.53;;;24.20;99.90;;;;;;5004934;28;20252;-63
2021/08/24 09:55:45;;;;;;;3.10;2.60;;;24.50;99.90;;;;;;5008885;28;20263;-62
2021/08/24 09:58:31;;;;;;;3.33;2.20;;;25.10;99.90;;;;;;5005963;28;20665;-62
2021/08/24 10:01:03;;;;;;;4.10;2.80;;;25.50;99.90;;;;;;5006457;28;20243;-62
2021/08/24 10:03:35;;;;;;;3.17;2.60;;;25.60;99.90;;;;;;5005839;28;20234;-62
2021/08/24 10:06:22;;;;;;;3.63;2.27;;;25.60;99.90;;;;;;5006832;28;20390;-62
2021/08/24 10:08:55;;;;;;;3.13;2.50;;;25.10;99.90;;;;;;5019659;28;20294;-61
2021/08/24 10:11:31;;;;;;;3.40;2.73;;;25.00;99.90;;;;;;5015408;28;20321;-62
2021/08/24 10:14:12;;;;;;;4.50;2.57;;;24.80;99.90;;;;;;5009830;28;20259;-62
2021/08/24 10:16:45;;;;;;;3.43;2.77;;;24.60;99.90;;;;;;5023154;28;20229;-62
2021/08/24 10:19:20;;;;;;;4.03;2.50;;;24.60;99.90;;;;;;5024779;28;20564;-63
2021/08/24 10:21:55;;;;;;;5.77;2.70;;;24.40;99.90;;;;;;5006027;28;20801;-63
2021/08/24 10:24:31;;;;;;;3.10;2.63;;;24.10;99.90;;;;;;5006895;28;20238;-62
2021/08/24 10:27:02;;;;;;;3.10;2.60;;;24.70;99.90;;;;;;5004541;28;20234;-62
2021/08/24 10:29:33;;;;;;;3.20;2.53;;;25.00;99.90;;;;;;5004510;28;20235;-62
2021/08/24 10:32:05;;;;;;;3.80;2.73;;;25.30;99.90;;;;;;5006051;28;20261;-62
2021/08/24 10:34:37;;;;;;;3.23;2.60;;;25.40;99.90;;;;;;5006877;28;20720;-62
2021/08/24 10:37:32;;;;;;;3.80;2.93;;;25.50;99.90;;;;;;5007685;28;20296;-63
2021/08/24 10:40:24;;;;;;;3.20;2.50;;;25.40;99.90;;;;;;5005067;28;20236;-63
2021/08/24 10:43:18;;;;;;;3.77;2.40;;;25.20;99.90;;;;;;5004756;28;20301;-62
2021/08/24 10:46:02;;;;;;;4.47;2.47;;;25.30;99.90;;;;;;5005109;28;20632;-62
2021/08/24 10:48:33;;;;;;;4.87;2.83;;;24.80;99.90;;;;;;5004992;28;20269;-62
2021/08/24 10:51:09;;;;;;;4.07;2.77;;;24.60;99.90;;;;;;5006474;28;20242;-62
2021/08/24 10:53:46;;;;;;;3.90;2.53;;;24.60;99.90;;;;;;5003412;28;20639;-63
2021/08/24 10:56:23;;;;;;;3.40;2.70;;;24.40;99.90;;;;;;5005837;28;20318;-62
2021/08/24 10:58:59;;;;;;;3.80;2.73;;;24.60;99.90;;;;;;5001912;28;20894;-63
2021/08/24 11:01:35;;;;;;;3.60;2.67;;;24.50;99.90;;;;;;5006482;28;20341;-63
2021/08/24 11:04:39;;;;;;;5.27;3.13;;;24.40;99.90;;;;;;5005369;28;20254;-62
2021/08/24 11:07:18;;;;;;;2.83;2.57;;;24.50;99.90;;;;;;4995756;28;20332;-61
2021/08/24 11:09:52;;;;;;;4.00;3.03;;;24.60;99.90;;;;;;5005660;28;20343;-62
2021/08/24 11:12:32;;;;;;;3.37;2.70;;;24.80;99.90;;;;;;5007851;28;20250;-63
2021/08/24 11:15:12;;;;;;;5.87;2.70;;;24.90;99.90;;;;;;5007065;28;20326;-62
2021/08/24 11:17:48;;;;;;;3.37;2.30;;;25.00;99.90;;;;;;5005253;28;20342;-63
2021/08/24 11:20:22;;;;;;;3.50;2.67;;;25.20;99.90;;;;;;5003211;28;21009;-62
2021/08/24 11:23:05;;;;;;;4.40;2.70;;;25.20;99.90;;;;;;5004460;28;20354;-63
2021/08/24 11:25:40;;;;;;;4.03;2.63;;;24.80;99.90;;;;;;5004974;28;20243;-62
2021/08/24 11:28:20;;;;;;;4.50;2.53;;;24.20;99.90;;;;;;5005981;28;20348;-63
2021/08/24 11:30:55;;;;;;;3.20;2.47;;;24.10;99.90;;;;;;5005158;28;20859;-62
2021/08/24 11:33:30;;;;;;;3.17;2.63;;;23.80;99.90;;;;;;5004122;28;20328;-62
2021/08/24 11:36:03;;;;;;;3.80;2.80;;;23.60;99.90;;;;;;5007233;28;20246;-63
2021/08/24 11:38:35;;;;;;;3.03;2.50;;;23.80;99.90;;;;;;5003442;28;20581;-63
2021/08/24 11:41:08;;;;;;;4.33;2.90;;;24.20;99.90;;;;;;5004054;28;20535;-63
2021/08/24 11:43:44;;;;;;;2.87;2.50;;;24.10;99.90;;;;;;5004251;28;20237;-63
2021/08/24 11:46:22;;;;;;;3.40;2.60;;;24.00;99.90;;;;;;5004014;28;20319;-63
2021/08/24 11:49:04;;;;;;;3.20;2.60;;;24.20;99.90;;;;;;5003065;28;20257;-63
2021/08/24 11:51:35;;;;;;;2.93;2.50;;;24.60;99.90;;;;;;5006775;28;20341;-63
2021/08/24 11:54:09;;;;;;;3.93;2.40;;;25.10;99.90;;;;;;5005158;28;20254;-63
2021/08/24 11:56:46;;;;;;;3.80;2.30;;;25.60;99.90;;;;;;5005956;28;20304;-63
2021/08/24 11:59:25;;;;;;;4.47;2.50;;;25.30;99.90;;;;;;5003366;28;20242;-63
2021/08/24 12:01:55;;;;;;;3.47;2.63;;;25.20;99.90;;;;;;5007024;28;21021;-63
2021/08/24 12:04:31;;;;;;;4.07;2.60;;;25.50;99.90;;;;;;5006579;28;20245;-63
2021/08/24 12:07:03;;;;;;;2.90;2.40;;;25.00;99.90;;;;;;5010742;28;20316;-64
2021/08/24 12:09:40;;;;;;;2.50;2.30;;;24.60;99.90;;;;;;5005939;28;20253;-63
2021/08/24 12:12:11;;;;;;;2.60;2.37;;;24.40;99.90;;;;;;5008416;28;20783;-63
2021/08/24 12:14:54;;;;;;;4.20;2.60;;;24.50;99.90;;;;;;5008949;28;20293;-63
2021/08/24 12:17:30;;;;;;;5.60;2.80;;;24.10;99.90;;;;;;5005194;28;20803;-63
2021/08/24 12:20:01;;;;;;;2.97;2.43;;;24.40;99.90;;;;;;5008617;28;20327;-63
2021/08/24 12:22:34;;;;;;;4.10;2.43;;;24.60;99.90;;;;;;5008043;28;20285;-63
2021/08/24 12:25:12;;;;;;;2.67;2.27;;;24.60;99.90;;;;;;5008218;28;20246;-63
2021/08/24 12:28:04;;;;;;;2.87;2.17;;;24.60;99.90;;;;;;5008434;28;20249;-63
2021/08/24 12:31:06;;;;;;;2.90;2.23;;;24.30;99.90;;;;;;5004646;28;20307;-63
2021/08/24 12:33:37;;;;;;;3.63;2.67;;;23.90;99.90;;;;;;5026824;28;20236;-63
2021/08/24 12:36:52;;;;;;;4.43;2.43;;;23.70;99.90;;;;;;5030165;28;20296;-63
2021/08/24 12:39:41;;;;;;;3.23;2.83;;;23.80;99.90;;;;;;5002173;28;20911;-63
2021/08/24 12:42:20;;;;;;;3.87;2.60;;;23.30;99.90;;;;;;5030790;28;20257;-63
2021/08/24 12:44:52;;;;;;;4.70;2.77;;;22.90;99.90;;;;;;5010339;28;21005;-63
2021/08/24 12:47:44;;;;;;;2.90;2.60;;;23.20;99.90;;;;;;5009048;28;20687;-63
2021/08/24 12:50:49;;;;;;;2.80;2.30;;;23.50;99.90;;;;;;5003080;28;20315;-63
2021/08/24 12:53:47;;;;;;;3.40;2.70;;;23.90;99.90;;;;;;5038326;28;20702;-63
2021/08/24 12:56:36;;;;;;;3.43;2.47;;;23.80;99.90;;;;;;5045058;28;20883;-63
2021/08/24 12:59:04;;;;;;;3.40;2.90;;;23.70;99.90;;;;;;5034646;28;20960;-63
2021/08/24 13:01:33;;;;;;;3.43;2.70;;;23.40;99.90;;;;;;5036721;28;20237;-63
2021/08/24 13:04:21;;;;;;;4.07;2.97;;;23.10;99.90;;;;;;5035852;28;20237;-63
2021/08/24 13:07:16;;;;;;;3.60;2.50;;;23.40;99.90;;;;;;5036056;28;20687;-63
2021/08/24 13:09:48;;;;;;;2.93;2.60;;;23.50;99.90;;;;;;5035173;28;20328;-63
2021/08/24 13:12:37;;;;;;;4.27;2.60;;;23.40;99.90;;;;;;5036093;28;20255;-63
2021/08/24 13:15:23;;;;;;;3.97;2.67;;;23.30;99.90;;;;;;5035686;28;20252;-63
2021/08/24 13:17:53;;;;;;;3.47;2.70;;;23.30;99.90;;;;;;5034799;28;21006;-63